sensor_id;sensor_type;location;lat;lon;timestamp;pressure;altitude;pressure_sealevel;temperature
79228;BMP280;68658;46.174;11.254;2023-05-20T00:01:57;92805.06;;;11.45
79228;BMP280;68658;46.174;11.254;2023-05-20T00:04:22;92806.28;;;11.55
79228;BMP280;68658;46.174;11.254;2023-05-20T00:06:47;92804.59;;;11.52
79228;BMP280;68658;46.174;11.254;2023-05-20T00:09:13;92797.38;;;11.53
79228;BMP280;68658;46.174;11.254;2023-05-20T00:11:38;92794.25;;;11.59
79228;BMP280;68658;46.174;11.254;2023-05-20T00:14:04;92796.91;;;11.59
79228;BMP280;68658;46.174;11.254;2023-05-20T00:16:30;92789.69;;;11.55
79228;BMP280;68658;46.174;11.254;2023-05-20T00:18:58;92793.28;;;11.57
79228;BMP280;68658;46.174;11.254;2023-05-20T00:21:24;92792.78;;;11.64
79228;BMP280;68658;46.174;11.254;2023-05-20T00:23:49;92792.06;;;11.69
79228;BMP280;68658;46.174;11.254;2023-05-20T00:26:15;92793.25;;;11.68
79228;BMP280;68658;46.174;11.254;2023-05-20T00:28:41;92787.72;;;11.71
79228;BMP280;68658;46.174;11.254;2023-05-20T00:31:06;92785.78;;;11.72
79228;BMP280;68658;46.174;11.254;2023-05-20T00:33:32;92796.16;;;11.59
79228;BMP280;68658;46.174;11.254;2023-05-20T00:35:57;92782.25;;;11.58
79228;BMP280;68658;46.174;11.254;2023-05-20T00:38:23;92787.03;;;11.65
79228;BMP280;68658;46.174;11.254;2023-05-20T00:40:48;92791.81;;;11.67
79228;BMP280;68658;46.174;11.254;2023-05-20T00:43:13;92785.56;;;11.70
79228;BMP280;68658;46.174;11.254;2023-05-20T00:45:40;92785.56;;;11.70
79228;BMP280;68658;46.174;11.254;2023-05-20T00:48:06;92786.78;;;11.63
79228;BMP280;68658;46.174;11.254;2023-05-20T00:50:31;92788.69;;;11.68
79228;BMP280;68658;46.174;11.254;2023-05-20T00:52:57;92786.97;;;11.71
79228;BMP280;68658;46.174;11.254;2023-05-20T00:55:24;92786.97;;;11.71
79228;BMP280;68658;46.174;11.254;2023-05-20T00:57:51;92786.28;;;11.70
79228;BMP280;68658;46.174;11.254;2023-05-20T01:00:17;92788.69;;;11.68
79228;BMP280;68658;46.174;11.254;2023-05-20T01:02:42;92791.81;;;11.67
79228;BMP280;68658;46.174;11.254;2023-05-20T01:05:08;92787.97;;;11.68
79228;BMP280;68658;46.174;11.254;2023-05-20T01:07:34;92780.28;;;11.70
79228;BMP280;68658;46.174;11.254;2023-05-20T01:10:00;92787.22;;;11.73
79228;BMP280;68658;46.174;11.254;2023-05-20T01:12:38;92779.78;;;11.66
79228;BMP280;68658;46.174;11.254;2023-05-20T01:15:09;92777.91;;;11.61
79228;BMP280;68658;46.174;11.254;2023-05-20T01:17:38;92776.91;;;11.64
79228;BMP280;68658;46.174;11.254;2023-05-20T01:20:06;92773.06;;;11.65
79228;BMP280;68658;46.174;11.254;2023-05-20T01:22:56;92768.28;;;11.58
79228;BMP280;68658;46.174;11.254;2023-05-20T01:25:22;92769.72;;;11.59
79228;BMP280;68658;46.174;11.254;2023-05-20T01:27:49;92769.72;;;11.59
79228;BMP280;68658;46.174;11.254;2023-05-20T01:30:16;92764.69;;;11.61
79228;BMP280;68658;46.174;11.254;2023-05-20T01:32:45;92767.34;;;11.56
79228;BMP280;68658;46.174;11.254;2023-05-20T01:35:13;92763.53;;;11.40
79228;BMP280;68658;46.174;11.254;2023-05-20T01:37:40;92761.09;;;11.42
79228;BMP280;68658;46.174;11.254;2023-05-20T01:40:11;92760.84;;;11.46
79228;BMP280;68658;46.174;11.254;2023-05-20T01:42:38;92760.13;;;11.45
79228;BMP280;68658;46.174;11.254;2023-05-20T01:45:05;92761.09;;;11.48
79228;BMP280;68658;46.174;11.254;2023-05-20T01:47:30;92765.91;;;11.44
79228;BMP280;68658;46.174;11.254;2023-05-20T01:49:59;92765.66;;;11.47
79228;BMP280;68658;46.174;11.254;2023-05-20T01:52:24;92759.19;;;11.48
79228;BMP280;68658;46.174;11.254;2023-05-20T01:54:50;92759.19;;;11.37
79228;BMP280;68658;46.174;11.254;2023-05-20T01:57:24;92763.03;;;11.36
79228;BMP280;68658;46.174;11.254;2023-05-20T01:59:50;92754.16;;;11.39
79228;BMP280;68658;46.174;11.254;2023-05-20T02:02:15;92753.41;;;11.44
79228;BMP280;68658;46.174;11.254;2023-05-20T02:04:45;92757.00;;;11.47
79228;BMP280;68658;46.174;11.254;2023-05-20T02:07:14;92758.19;;;11.51
79228;BMP280;68658;46.174;11.254;2023-05-20T02:09:40;92756.28;;;11.46
79228;BMP280;68658;46.174;11.254;2023-05-20T02:12:06;92755.09;;;11.42
79228;BMP280;68658;46.174;11.254;2023-05-20T02:14:32;92747.41;;;11.44
79228;BMP280;68658;46.174;11.254;2023-05-20T02:16:57;92747.63;;;11.46
79228;BMP280;68658;46.174;11.254;2023-05-20T02:19:23;92744.34;;;11.23
79228;BMP280;68658;46.174;11.254;2023-05-20T02:21:50;92738.34;;;11.23
79228;BMP280;68658;46.174;11.254;2023-05-20T02:24:16;92729.44;;;11.31
79228;BMP280;68658;46.174;11.254;2023-05-20T02:26:41;92733.78;;;11.23
79228;BMP280;68658;46.174;11.254;2023-05-20T02:29:08;92735.97;;;11.08
79228;BMP280;68658;46.174;11.254;2023-05-20T02:31:34;92733.78;;;11.23
79228;BMP280;68658;46.174;11.254;2023-05-20T02:34:00;92730.41;;;11.28
79228;BMP280;68658;46.174;11.254;2023-05-20T02:36:25;92720.56;;;11.29
79228;BMP280;68658;46.174;11.254;2023-05-20T02:38:52;92732.09;;;11.20
79228;BMP280;68658;46.174;11.254;2023-05-20T02:41:21;92723.72;;;11.16
79228;BMP280;68658;46.174;11.254;2023-05-20T02:43:46;92725.38;;;11.19
79228;BMP280;68658;46.174;11.254;2023-05-20T02:46:12;92724.66;;;11.19
79228;BMP280;68658;46.174;11.254;2023-05-20T02:48:37;92723.47;;;11.20
79228;BMP280;68658;46.174;11.254;2023-05-20T02:51:03;92718.19;;;11.20
79228;BMP280;68658;46.174;11.254;2023-05-20T02:53:28;92723.72;;;11.16
79228;BMP280;68658;46.174;11.254;2023-05-20T02:55:54;92726.81;;;11.20
79228;BMP280;68658;46.174;11.254;2023-05-20T02:58:19;92729.94;;;11.24
79228;BMP280;68658;46.174;11.254;2023-05-20T03:00:51;92731.84;;;11.29
79228;BMP280;68658;46.174;11.254;2023-05-20T03:03:16;92723.16;;;11.34
79228;BMP280;68658;46.174;11.254;2023-05-20T03:05:41;92723.16;;;11.34
79228;BMP280;68658;46.174;11.254;2023-05-20T03:08:10;92728.44;;;11.34
79228;BMP280;68658;46.174;11.254;2023-05-20T03:10:37;92724.84;;;11.37
79228;BMP280;68658;46.174;11.254;2023-05-20T03:13:04;92718.38;;;11.27
79228;BMP280;68658;46.174;11.254;2023-05-20T03:15:32;92736.66;;;11.25
79228;BMP280;68658;46.174;11.254;2023-05-20T03:17:58;92721.75;;;11.28
79228;BMP280;68658;46.174;11.254;2023-05-20T03:20:23;92723.69;;;11.27
79228;BMP280;68658;46.174;11.254;2023-05-20T03:22:51;92724.66;;;11.24
79228;BMP280;68658;46.174;11.254;2023-05-20T03:25:16;92723.69;;;11.27
79228;BMP280;68658;46.174;11.254;2023-05-20T03:27:42;92718.13;;;11.31
79228;BMP280;68658;46.174;11.254;2023-05-20T03:30:09;92721.03;;;11.33
79228;BMP280;68658;46.174;11.254;2023-05-20T03:32:34;92719.13;;;11.28
79228;BMP280;68658;46.174;11.254;2023-05-20T03:35:00;92722.47;;;11.28
79228;BMP280;68658;46.174;11.254;2023-05-20T03:37:25;92720.09;;;11.25
79228;BMP280;68658;46.174;11.254;2023-05-20T03:39:50;92715.78;;;11.16
79228;BMP280;68658;46.174;11.254;2023-05-20T03:42:16;92722.28;;;11.21
79228;BMP280;68658;46.174;11.254;2023-05-20T03:44:41;92719.59;;;11.26
79228;BMP280;68658;46.174;11.254;2023-05-20T03:47:07;92714.31;;;11.26
79228;BMP280;68658;46.174;11.254;2023-05-20T03:49:32;92721.31;;;11.18
79228;BMP280;68658;46.174;11.254;2023-05-20T03:51:58;92718.94;;;11.09
79228;BMP280;68658;46.174;11.254;2023-05-20T03:54:23;92716.50;;;11.17
79228;BMP280;68658;46.174;11.254;2023-05-20T03:56:49;92722.97;;;11.21
79228;BMP280;68658;46.174;11.254;2023-05-20T03:59:16;92714.59;;;11.12
79228;BMP280;68658;46.174;11.254;2023-05-20T04:01:42;92718.44;;;11.16
79228;BMP280;68658;46.174;11.254;2023-05-20T04:04:07;92709.78;;;11.21
79228;BMP280;68658;46.174;11.254;2023-05-20T04:06:32;92712.16;;;11.19
79228;BMP280;68658;46.174;11.254;2023-05-20T04:08:58;92709.50;;;11.25
79228;BMP280;68658;46.174;11.254;2023-05-20T04:11:23;92710.69;;;11.29
79228;BMP280;68658;46.174;11.254;2023-05-20T04:13:49;92712.16;;;11.30
79228;BMP280;68658;46.174;11.254;2023-05-20T04:16:14;92702.53;;;11.33
79228;BMP280;68658;46.174;11.254;2023-05-20T04:18:40;92702.53;;;11.27
79228;BMP280;68658;46.174;11.254;2023-05-20T04:21:05;92701.84;;;11.21
79228;BMP280;68658;46.174;11.254;2023-05-20T04:23:32;92709.78;;;11.21
79228;BMP280;68658;46.174;11.254;2023-05-20T04:25:57;92696.31;;;11.25
79228;BMP280;68658;46.174;11.254;2023-05-20T04:28:27;92698.94;;;11.30
79228;BMP280;68658;46.174;11.254;2023-05-20T04:31:01;92700.13;;;11.29
79228;BMP280;68658;46.174;11.254;2023-05-20T04:33:28;92703.75;;;11.26
79228;BMP280;68658;46.174;11.254;2023-05-20T04:35:54;92716.22;;;11.31
79228;BMP280;68658;46.174;11.254;2023-05-20T04:38:23;92719.56;;;11.32
79228;BMP280;68658;46.174;11.254;2023-05-20T04:40:57;92716.22;;;11.31
79228;BMP280;68658;46.174;11.254;2023-05-20T04:43:25;92719.38;;;11.19
79228;BMP280;68658;46.174;11.254;2023-05-20T04:45:57;92712.22;;;11.08
79228;BMP280;68658;46.174;11.254;2023-05-20T04:48:23;92714.13;;;11.13
79228;BMP280;68658;46.174;11.254;2023-05-20T04:50:49;92714.59;;;11.17
79228;BMP280;68658;46.174;11.254;2023-05-20T04:53:16;92712.41;;;11.27
79228;BMP280;68658;46.174;11.254;2023-05-20T04:55:42;92716.47;;;11.33
79228;BMP280;68658;46.174;11.254;2023-05-20T04:58:08;92715.47;;;11.36
79228;BMP280;68658;46.174;11.254;2023-05-20T05:00:40;92709.03;;;11.26
79228;BMP280;68658;46.174;11.254;2023-05-20T05:03:06;92712.66;;;11.18
79228;BMP280;68658;46.174;11.254;2023-05-20T05:05:34;92716.50;;;11.22
79228;BMP280;68658;46.174;11.254;2023-05-20T05:08:00;92714.03;;;11.35
79228;BMP280;68658;46.174;11.254;2023-05-20T05:10:25;92711.38;;;11.46
79228;BMP280;68658;46.174;11.254;2023-05-20T05:12:51;92704.59;;;11.56
79228;BMP280;68658;46.174;11.254;2023-05-20T05:15:16;92716.84;;;11.64
79228;BMP280;68658;46.174;11.254;2023-05-20T05:17:42;92701.91;;;11.72
79228;BMP280;68658;46.174;11.254;2023-05-20T05:20:08;92699.97;;;11.73
79228;BMP280;68658;46.174;11.254;2023-05-20T05:22:33;92695.84;;;11.83
79228;BMP280;68658;46.174;11.254;2023-05-20T05:25:02;92697.00;;;11.93
79228;BMP280;68658;46.174;11.254;2023-05-20T05:27:31;92694.56;;;11.95
79228;BMP280;68658;46.174;11.254;2023-05-20T05:29:56;92691.25;;;11.83
79228;BMP280;68658;46.174;11.254;2023-05-20T05:32:22;92692.97;;;11.81
79228;BMP280;68658;46.174;11.254;2023-05-20T05:34:47;92693.88;;;11.89
79228;BMP280;68658;46.174;11.254;2023-05-20T05:37:13;92688.31;;;11.92
79228;BMP280;68658;46.174;11.254;2023-05-20T05:39:38;92696.19;;;12.03
79228;BMP280;68658;46.174;11.254;2023-05-20T05:42:04;92691.31;;;12.13
79228;BMP280;68658;46.174;11.254;2023-05-20T05:44:30;92693.88;;;12.24
79228;BMP280;68658;46.174;11.254;2023-05-20T05:46:55;92685.19;;;12.29
79228;BMP280;68658;46.174;11.254;2023-05-20T05:49:21;92694.88;;;12.21
79228;BMP280;68658;46.174;11.254;2023-05-20T05:51:46;92679.97;;;12.18
79228;BMP280;68658;46.174;11.254;2023-05-20T05:54:12;92685.72;;;12.22
79228;BMP280;68658;46.174;11.254;2023-05-20T05:56:37;92688.50;;;12.34
79228;BMP280;68658;46.174;11.254;2023-05-20T05:59:03;92683.16;;;12.45
79228;BMP280;68658;46.174;11.254;2023-05-20T06:01:29;92685.47;;;12.54
79228;BMP280;68658;46.174;11.254;2023-05-20T06:03:57;92679.31;;;12.70
79228;BMP280;68658;46.174;11.254;2023-05-20T06:06:23;92675.44;;;12.71
79228;BMP280;68658;46.174;11.254;2023-05-20T06:08:48;92669.06;;;12.85
79228;BMP280;68658;46.174;11.254;2023-05-20T06:11:14;92676.47;;;12.92
79228;BMP280;68658;46.174;11.254;2023-05-20T06:13:39;92673.34;;;12.94
79228;BMP280;68658;46.174;11.254;2023-05-20T06:16:05;92664.94;;;12.90
79228;BMP280;68658;46.174;11.254;2023-05-20T06:18:30;92662.06;;;12.88
79228;BMP280;68658;46.174;11.254;2023-05-20T06:20:56;92666.91;;;12.84
79228;BMP280;68658;46.174;11.254;2023-05-20T06:23:22;92656.22;;;12.95
79228;BMP280;68658;46.174;11.254;2023-05-20T06:25:49;92657.50;;;13.12
79228;BMP280;68658;46.174;11.254;2023-05-20T06:28:14;92652.72;;;13.29
79228;BMP280;68658;46.174;11.254;2023-05-20T06:30:43;92646.63;;;13.15
79228;BMP280;68658;46.174;11.254;2023-05-20T06:33:09;92653.41;;;13.11
79228;BMP280;68658;46.174;11.254;2023-05-20T06:35:36;92652.69;;;13.11
79228;BMP280;68658;46.174;11.254;2023-05-20T06:38:01;92666.34;;;12.96
79228;BMP280;68658;46.174;11.254;2023-05-20T06:40:27;92660.84;;;12.89
79228;BMP280;68658;46.174;11.254;2023-05-20T06:42:53;92651.44;;;12.93
79228;BMP280;68658;46.174;11.254;2023-05-20T06:45:19;92650.53;;;13.09
79228;BMP280;68658;46.174;11.254;2023-05-20T06:47:46;92646.75;;;13.23
79228;BMP280;68658;46.174;11.254;2023-05-20T06:50:13;92645.53;;;13.24
79228;BMP280;68658;46.174;11.254;2023-05-20T06:52:39;92654.44;;;13.26
79228;BMP280;68658;46.174;11.254;2023-05-20T06:55:05;92654.81;;;13.54
79228;BMP280;68658;46.174;11.254;2023-05-20T06:57:30;92644.66;;;13.77
79228;BMP280;68658;46.174;11.254;2023-05-20T06:59:56;92647.88;;;13.70
79228;BMP280;68658;46.174;11.254;2023-05-20T07:02:22;92646.78;;;13.78
79228;BMP280;68658;46.174;11.254;2023-05-20T07:04:48;92648.22;;;13.61
79228;BMP280;68658;46.174;11.254;2023-05-20T07:07:13;92643.84;;;13.63
79228;BMP280;68658;46.174;11.254;2023-05-20T07:09:39;92642.00;;;13.58
79228;BMP280;68658;46.174;11.254;2023-05-20T07:12:05;92651.81;;;13.45
79228;BMP280;68658;46.174;11.254;2023-05-20T07:14:30;92656.22;;;13.37
79228;BMP280;68658;46.174;11.254;2023-05-20T07:16:56;92652.44;;;13.51
79228;BMP280;68658;46.174;11.254;2023-05-20T07:19:22;92649.03;;;13.56
79228;BMP280;68658;46.174;11.254;2023-05-20T07:21:47;92653.69;;;13.50
79228;BMP280;68658;46.174;11.254;2023-05-20T07:24:14;92654.78;;;13.36
79228;BMP280;68658;46.174;11.254;2023-05-20T07:26:40;92654.25;;;13.43
79228;BMP280;68658;46.174;11.254;2023-05-20T07:29:06;92654.56;;;13.58
79228;BMP280;68658;46.174;11.254;2023-05-20T07:31:32;92652.66;;;13.34
79228;BMP280;68658;46.174;11.254;2023-05-20T07:33:57;92657.34;;;13.23
79228;BMP280;68658;46.174;11.254;2023-05-20T07:36:25;92655.03;;;13.14
79228;BMP280;68658;46.174;11.254;2023-05-20T07:38:51;92653.59;;;13.13
79228;BMP280;68658;46.174;11.254;2023-05-20T07:41:17;92651.56;;;13.24
79228;BMP280;68658;46.174;11.254;2023-05-20T07:43:45;92656.50;;;13.33
79228;BMP280;68658;46.174;11.254;2023-05-20T07:46:11;92661.34;;;13.35
79228;BMP280;68658;46.174;11.254;2023-05-20T07:48:37;92657.66;;;13.38
79228;BMP280;68658;46.174;11.254;2023-05-20T07:51:02;92656.75;;;13.35
79228;BMP280;68658;46.174;11.254;2023-05-20T07:53:28;92661.84;;;13.52
79228;BMP280;68658;46.174;11.254;2023-05-20T07:55:53;92658.41;;;13.57
79228;BMP280;68658;46.174;11.254;2023-05-20T07:58:19;92654.81;;;13.54
79228;BMP280;68658;46.174;11.254;2023-05-20T08:00:44;92655.81;;;13.51
79228;BMP280;68658;46.174;11.254;2023-05-20T08:03:10;92645.06;;;13.44
79228;BMP280;68658;46.174;11.254;2023-05-20T08:05:36;92644.41;;;13.38
79228;BMP280;68658;46.174;11.254;2023-05-20T08:08:02;92652.16;;;13.36
79228;BMP280;68658;46.174;11.254;2023-05-20T08:10:28;92655.91;;;13.22
79228;BMP280;68658;46.174;11.254;2023-05-20T08:12:53;92643.47;;;13.35
79228;BMP280;68658;46.174;11.254;2023-05-20T08:15:19;92643.91;;;13.39
79228;BMP280;68658;46.174;11.254;2023-05-20T08:17:44;92657.38;;;13.41
79228;BMP280;68658;46.174;11.254;2023-05-20T08:20:10;92654.59;;;13.34
79228;BMP280;68658;46.174;11.254;2023-05-20T08:22:37;92660.88;;;13.31
79228;BMP280;68658;46.174;11.254;2023-05-20T08:25:03;92654.78;;;13.36
79228;BMP280;68658;46.174;11.254;2023-05-20T08:27:28;92660.09;;;13.36
79228;BMP280;68658;46.174;11.254;2023-05-20T08:29:54;92650.06;;;13.29
79228;BMP280;68658;46.174;11.254;2023-05-20T08:32:20;92658.00;;;13.29
79228;BMP280;68658;46.174;11.254;2023-05-20T08:34:46;92669.19;;;13.22
79228;BMP280;68658;46.174;11.254;2023-05-20T08:37:13;92675.69;;;13.21
79228;BMP280;68658;46.174;11.254;2023-05-20T08:39:41;92666.16;;;13.13
79228;BMP280;68658;46.174;11.254;2023-05-20T08:42:07;92666.53;;;13.22
79228;BMP280;68658;46.174;11.254;2023-05-20T08:44:35;92665.63;;;13.38
79228;BMP280;68658;46.174;11.254;2023-05-20T08:47:01;92662.84;;;13.49
79228;BMP280;68658;46.174;11.254;2023-05-20T08:49:28;92652.09;;;13.41
79228;BMP280;68658;46.174;11.254;2023-05-20T08:51:53;92662.84;;;13.49
79228;BMP280;68658;46.174;11.254;2023-05-20T08:54:20;92658.41;;;13.57
79228;BMP280;68658;46.174;11.254;2023-05-20T08:56:48;92656.97;;;13.56
79228;BMP280;68658;46.174;11.254;2023-05-20T08:59:13;92648.38;;;13.68
79228;BMP280;68658;46.174;11.254;2023-05-20T09:01:42;92643.44;;;13.78
79228;BMP280;68658;46.174;11.254;2023-05-20T09:04:08;92644.78;;;13.66
79228;BMP280;68658;46.174;11.254;2023-05-20T09:06:46;92643.06;;;13.68
79228;BMP280;68658;46.174;11.254;2023-05-20T09:09:12;92641.34;;;13.89
79228;BMP280;68658;46.174;11.254;2023-05-20T09:11:39;92639.03;;;13.98
79228;BMP280;68658;46.174;11.254;2023-05-20T09:14:06;92641.91;;;14.00
79228;BMP280;68658;46.174;11.254;2023-05-20T09:16:31;92640.31;;;13.92
79228;BMP280;68658;46.174;11.254;2023-05-20T09:18:57;92645.72;;;13.87
79228;BMP280;68658;46.174;11.254;2023-05-20T09:21:29;92653.59;;;13.74
79228;BMP280;68658;46.174;11.254;2023-05-20T09:23:55;92657.03;;;13.69
79228;BMP280;68658;46.174;11.254;2023-05-20T09:26:26;92653.41;;;13.72
79228;BMP280;68658;46.174;11.254;2023-05-20T09:28:55;92658.41;;;13.75
79228;BMP280;68658;46.174;11.254;2023-05-20T09:31:21;92646.19;;;13.85
79228;BMP280;68658;46.174;11.254;2023-05-20T09:33:50;92656.69;;;13.78
79228;BMP280;68658;46.174;11.254;2023-05-20T09:36:16;92659.28;;;13.65
79228;BMP280;68658;46.174;11.254;2023-05-20T09:38:44;92662.28;;;13.74
79228;BMP280;68658;46.174;11.254;2023-05-20T09:41:12;92662.69;;;13.60
79228;BMP280;68658;46.174;11.254;2023-05-20T09:43:39;92664.94;;;13.56
79228;BMP280;68658;46.174;11.254;2023-05-20T09:46:06;92664.13;;;13.79
79228;BMP280;68658;46.174;11.254;2023-05-20T09:48:34;92658.88;;;13.92
79228;BMP280;68658;46.174;11.254;2023-05-20T09:51:01;92645.78;;;14.18
79228;BMP280;68658;46.174;11.254;2023-05-20T09:53:28;92646.28;;;14.48
79228;BMP280;68658;46.174;11.254;2023-05-20T09:55:54;92642.19;;;14.60
79228;BMP280;68658;46.174;11.254;2023-05-20T09:58:21;92625.25;;;14.63
79228;BMP280;68658;46.174;11.254;2023-05-20T10:00:50;92639.59;;;14.72
79228;BMP280;68658;46.174;11.254;2023-05-20T10:03:17;92642.94;;;14.73
79228;BMP280;68658;46.174;11.254;2023-05-20T10:05:48;92638.84;;;14.59
79228;BMP280;68658;46.174;11.254;2023-05-20T10:08:31;92647.41;;;14.52
79228;BMP280;68658;46.174;11.254;2023-05-20T10:19:31;92637.41;;;14.71
79228;BMP280;68658;46.174;11.254;2023-05-20T10:22:09;92636.00;;;14.70
79228;BMP280;68658;46.174;11.254;2023-05-20T10:24:40;92631.13;;;15.00
79228;BMP280;68658;46.174;11.254;2023-05-20T10:27:08;92630.56;;;14.63
79228;BMP280;68658;46.174;11.254;2023-05-20T10:29:59;92640.28;;;14.73
79228;BMP280;68658;46.174;11.254;2023-05-20T10:32:28;92630.09;;;14.77
79228;BMP280;68658;46.174;11.254;2023-05-20T10:35:00;92636.25;;;14.54
79228;BMP280;68658;46.174;11.254;2023-05-20T10:37:28;92635.34;;;14.51
79228;BMP280;68658;46.174;11.254;2023-05-20T10:40:13;92638.16;;;14.40
79228;BMP280;68658;46.174;11.254;2023-05-20T10:42:39;92644.47;;;14.24
79228;BMP280;68658;46.174;11.254;2023-05-20T10:45:08;92645.06;;;14.17
79228;BMP280;68658;46.174;11.254;2023-05-20T10:47:35;92642.91;;;14.16
79228;BMP280;68658;46.174;11.254;2023-05-20T10:50:01;92642.59;;;14.01
79228;BMP280;68658;46.174;11.254;2023-05-20T10:52:32;92640.75;;;13.96
79228;BMP280;68658;46.174;11.254;2023-05-20T10:54:59;92652.59;;;13.95
79228;BMP280;68658;46.174;11.254;2023-05-20T10:57:26;92648.50;;;13.94
79228;BMP280;68658;46.174;11.254;2023-05-20T10:59:53;92649.34;;;14.02
79228;BMP280;68658;46.174;11.254;2023-05-20T11:02:19;92641.59;;;14.04
79228;BMP280;68658;46.174;11.254;2023-05-20T11:04:51;92634.88;;;14.03
79228;BMP280;68658;46.174;11.254;2023-05-20T11:07:30;92641.16;;;14.18
79228;BMP280;68658;46.174;11.254;2023-05-20T11:09:57;92634.25;;;14.28
79228;BMP280;68658;46.174;11.254;2023-05-20T11:12:24;92620.41;;;14.48
79228;BMP280;68658;46.174;11.254;2023-05-20T11:14:50;92637.41;;;14.58
79228;BMP280;68658;46.174;11.254;2023-05-20T11:17:17;92640.28;;;14.73
79228;BMP280;68658;46.174;11.254;2023-05-20T11:19:45;92631.19;;;14.81
79228;BMP280;68658;46.174;11.254;2023-05-20T11:22:11;92629.25;;;14.82
79228;BMP280;68658;46.174;11.254;2023-05-20T11:24:37;92621.91;;;14.75
79228;BMP280;68658;46.174;11.254;2023-05-20T11:27:02;92630.78;;;14.77
79228;BMP280;68658;46.174;11.254;2023-05-20T11:29:28;92618.19;;;14.65
79228;BMP280;68658;46.174;11.254;2023-05-20T11:31:56;92616.78;;;14.64
79228;BMP280;68658;46.174;11.254;2023-05-20T11:34:22;92621.06;;;14.54
79228;BMP280;68658;46.174;11.254;2023-05-20T11:36:48;92617.34;;;14.44
79228;BMP280;68658;46.174;11.254;2023-05-20T11:39:20;92617.88;;;14.43
79228;BMP280;68658;46.174;11.254;2023-05-20T11:41:46;92621.44;;;14.45
79228;BMP280;68658;46.174;11.254;2023-05-20T11:44:12;92616.97;;;14.53
79228;BMP280;68658;46.174;11.254;2023-05-20T11:46:42;92609.78;;;14.48
79228;BMP280;68658;46.174;11.254;2023-05-20T11:49:09;92609.78;;;14.48
79228;BMP280;68658;46.174;11.254;2023-05-20T11:51:36;92606.13;;;14.51
79228;BMP280;68658;46.174;11.254;2023-05-20T11:54:08;92605.75;;;14.60
79228;BMP280;68658;46.174;11.254;2023-05-20T11:56:36;92601.75;;;14.54
79228;BMP280;68658;46.174;11.254;2023-05-20T11:59:04;92603.38;;;14.44
79228;BMP280;68658;46.174;11.254;2023-05-20T12:01:32;92603.47;;;14.51
79228;BMP280;68658;46.174;11.254;2023-05-20T12:04:10;92599.47;;;14.45
79228;BMP280;68658;46.174;11.254;2023-05-20T12:06:39;92597.94;;;14.36
79228;BMP280;68658;46.174;11.254;2023-05-20T12:09:05;92602.25;;;14.39
79228;BMP280;68658;46.174;11.254;2023-05-20T12:11:35;92598.56;;;14.42
79228;BMP280;68658;46.174;11.254;2023-05-20T12:14:02;92594.16;;;14.45
79228;BMP280;68658;46.174;11.254;2023-05-20T12:16:30;92603.06;;;14.47
79228;BMP280;68658;46.174;11.254;2023-05-20T12:18:55;92599.06;;;14.41
79228;BMP280;68658;46.174;11.254;2023-05-20T12:21:21;92603.41;;;14.25
79228;BMP280;68658;46.174;11.254;2023-05-20T12:23:46;92610.25;;;14.21
79228;BMP280;68658;46.174;11.254;2023-05-20T12:26:12;92610.16;;;14.26
79228;BMP280;68658;46.174;11.254;2023-05-20T12:28:37;92610.16;;;14.26
79228;BMP280;68658;46.174;11.254;2023-05-20T12:31:03;92609.84;;;14.30
79228;BMP280;68658;46.174;11.254;2023-05-20T12:33:28;92611.72;;;14.35
79228;BMP280;68658;46.174;11.254;2023-05-20T12:35:54;92610.59;;;14.30
79228;BMP280;68658;46.174;11.254;2023-05-20T12:38:19;92610.81;;;14.32
79228;BMP280;68658;46.174;11.254;2023-05-20T12:40:44;92615.00;;;14.41
79228;BMP280;68658;46.174;11.254;2023-05-20T12:43:10;92614.69;;;14.44
79228;BMP280;68658;46.174;11.254;2023-05-20T12:45:38;92618.56;;;14.43
79228;BMP280;68658;46.174;11.254;2023-05-20T12:48:04;92619.56;;;14.27
79228;BMP280;68658;46.174;11.254;2023-05-20T12:50:32;92627.41;;;14.20
79228;BMP280;68658;46.174;11.254;2023-05-20T12:52:57;92625.84;;;14.11
79228;BMP280;68658;46.174;11.254;2023-05-20T12:55:25;92624.88;;;14.09
79228;BMP280;68658;46.174;11.254;2023-05-20T12:57:53;92632.56;;;14.12
79228;BMP280;68658;46.174;11.254;2023-05-20T13:00:18;92635.22;;;14.12
79228;BMP280;68658;46.174;11.254;2023-05-20T13:02:47;92644.91;;;14.10
79228;BMP280;68658;46.174;11.254;2023-05-20T13:05:12;92640.97;;;14.16
79228;BMP280;68658;46.174;11.254;2023-05-20T13:07:38;92644.88;;;14.28
79228;BMP280;68658;46.174;11.254;2023-05-20T13:10:05;92648.69;;;14.33
79228;BMP280;68658;46.174;11.254;2023-05-20T13:12:31;92652.44;;;14.24
79228;BMP280;68658;46.174;11.254;2023-05-20T13:14:56;92660.56;;;14.13
79228;BMP280;68658;46.174;11.254;2023-05-20T13:17:22;92669.44;;;14.16
79228;BMP280;68658;46.174;11.254;2023-05-20T13:19:47;92669.25;;;14.14
79228;BMP280;68658;46.174;11.254;2023-05-20T13:22:13;92660.69;;;14.21
79228;BMP280;68658;46.174;11.254;2023-05-20T13:24:38;92659.38;;;14.09
79228;BMP280;68658;46.174;11.254;2023-05-20T13:27:04;92655.75;;;14.12
79228;BMP280;68658;46.174;11.254;2023-05-20T13:29:29;92658.53;;;14.19
79228;BMP280;68658;46.174;11.254;2023-05-20T13:31:56;92659.81;;;14.31
79228;BMP280;68658;46.174;11.254;2023-05-20T13:34:21;92656.47;;;14.44
79228;BMP280;68658;46.174;11.254;2023-05-20T13:36:47;92652.72;;;14.52
79228;BMP280;68658;46.174;11.254;2023-05-20T13:39:14;92646.63;;;14.70
79228;BMP280;68658;46.174;11.254;2023-05-20T13:41:40;92633.75;;;14.87
79228;BMP280;68658;46.174;11.254;2023-05-20T13:44:05;92633.06;;;14.99
79228;BMP280;68658;46.174;11.254;2023-05-20T13:46:31;92622.41;;;15.12
79228;BMP280;68658;46.174;11.254;2023-05-20T13:48:57;92622.09;;;15.16
79228;BMP280;68658;46.174;11.254;2023-05-20T13:51:22;92624.16;;;15.23
79228;BMP280;68658;46.174;11.254;2023-05-20T13:53:48;92621.59;;;15.04
79228;BMP280;68658;46.174;11.254;2023-05-20T13:56:13;92629.66;;;14.73
79228;BMP280;68658;46.174;11.254;2023-05-20T13:58:39;92626.78;;;14.71
79228;BMP280;68658;46.174;11.254;2023-05-20T14:01:05;92631.72;;;14.80
79228;BMP280;68658;46.174;11.254;2023-05-20T14:03:31;92624.03;;;14.89